createdAt,value
2022-11-20T00:02:59.808Z,100271.03
2022-11-20T00:06:07.280Z,100253.97
2022-11-20T00:09:11.077Z,100250.41
2022-11-20T00:12:14.271Z,100245.44
2022-11-20T00:15:16.691Z,100239.47
2022-11-20T00:18:19.137Z,100239.41
2022-11-20T00:21:24.374Z,100275.72
2022-11-20T00:24:26.911Z,100307.25
2022-11-20T00:27:29.377Z,100304.53
2022-11-20T00:30:31.918Z,100279.84
2022-11-20T00:33:35.611Z,100263.44
2022-11-20T00:36:38.072Z,100269.09
2022-11-20T00:39:40.624Z,100273.47
2022-11-20T00:42:43.048Z,100265.44
2022-11-20T00:45:45.590Z,100287.38
2022-11-20T00:48:48.295Z,100309.19
2022-11-20T00:51:50.874Z,100310.81
2022-11-20T00:54:53.314Z,100309.97
2022-11-20T00:57:55.947Z,100311.72
2022-11-20T01:01:03.700Z,100317.56
2022-11-20T01:04:06.771Z,100310.69
2022-11-20T01:07:09.434Z,100316.84
2022-11-20T01:10:12.447Z,100308.75
2022-11-20T01:13:33.316Z,100300.28
2022-11-20T01:16:38.460Z,100301.72
2022-11-20T01:19:40.884Z,100281.56
2022-11-20T01:22:43.364Z,100268.81
2022-11-20T01:25:45.809Z,100261.03
2022-11-20T01:28:48.777Z,100278.91
2022-11-20T01:31:52.691Z,100273.75
2022-11-20T01:34:55.279Z,100271.25
2022-11-20T01:37:57.773Z,100268.47
2022-11-20T01:41:00.484Z,100274.53
2022-11-20T01:44:05.262Z,100269.47
2022-11-20T01:47:09.602Z,100266.78
2022-11-20T01:50:20.830Z,100254.88
2022-11-20T01:53:29.080Z,100249.38
2022-11-20T01:56:36.382Z,100240.38
2022-11-20T01:59:45.084Z,100219.81
2022-11-20T02:02:58.103Z,100204.13
2022-11-20T02:06:13.181Z,100197.41
2022-11-20T02:09:16.209Z,100187.69
2022-11-20T02:12:39.387Z,100196.88
2022-11-20T02:15:42.163Z,100201.72
2022-11-20T02:18:46.779Z,100198.50
2022-11-20T02:21:52.616Z,100217.03
2022-11-20T02:24:55.138Z,100225.44
2022-11-20T02:27:57.822Z,100232.19
2022-11-20T02:31:00.500Z,100231.03
2022-11-20T02:34:03.266Z,100224.16
2022-11-20T02:37:05.792Z,100222.31
2022-11-20T02:40:09.176Z,100222.38
2022-11-20T02:43:11.776Z,100225.13
2022-11-20T02:46:14.198Z,100226.75
2022-11-20T02:49:18.078Z,100216.34
2022-11-20T02:52:20.693Z,100205.31
2022-11-20T02:55:23.221Z,100199.47
2022-11-20T02:58:25.905Z,100190.09
2022-11-20T03:01:28.427Z,100189.19
2022-11-20T03:04:31.002Z,100196.81
2022-11-20T03:07:33.698Z,100190.91
2022-11-20T03:10:36.471Z,100184.13
2022-11-20T03:13:39.151Z,100180.13
2022-11-20T03:16:41.589Z,100173.50
2022-11-20T03:19:44.050Z,100162.34
2022-11-20T03:22:46.490Z,100147.22
2022-11-20T03:25:49.052Z,100148.31
2022-11-20T03:28:56.632Z,100143.69
2022-11-20T03:31:59.296Z,100159.06
2022-11-20T03:35:01.792Z,100170.34
2022-11-20T03:38:04.648Z,100162.69
2022-11-20T03:41:10.255Z,100175.03
2022-11-20T03:44:13.222Z,100182.59
2022-11-20T03:47:15.694Z,100179.72
2022-11-20T03:50:18.452Z,100170.66
2022-11-20T03:53:21.392Z,100167.44
2022-11-20T03:56:26.060Z,100161.94
2022-11-20T03:59:28.520Z,100172.22
2022-11-20T04:02:31.162Z,100163.75
2022-11-20T04:05:35.093Z,100152.81
2022-11-20T04:08:38.165Z,100153.91
2022-11-20T04:11:41.330Z,100153.84
2022-11-20T04:14:44.067Z,100151.97
2022-11-20T04:17:46.471Z,100149.84
2022-11-20T04:20:48.931Z,100142.91
2022-11-20T04:23:53.774Z,100155.38
2022-11-20T04:26:56.168Z,100158.63
2022-11-20T04:29:58.855Z,100150.97
2022-11-20T04:33:01.323Z,100141.34
2022-11-20T04:36:17.996Z,100146.09
2022-11-20T04:39:20.810Z,100144.69
2022-11-20T04:42:32.311Z,100134.16
2022-11-20T04:45:34.807Z,100133.25
2022-11-20T04:48:37.233Z,100137.88
2022-11-20T04:51:39.846Z,100122.78
2022-11-20T04:54:42.402Z,100122.84
2022-11-20T04:57:44.752Z,100113.38
2022-11-20T05:00:47.227Z,100111.84
2022-11-20T05:03:50.375Z,100109.13
2022-11-20T05:06:52.946Z,100105.59
2022-11-20T05:09:55.486Z,100103.91
2022-11-20T05:12:58.555Z,100112.19
2022-11-20T05:16:13.676Z,100111.28
2022-11-20T05:19:16.371Z,100100.31
2022-11-20T05:22:18.863Z,100098.53
2022-11-20T05:25:21.243Z,100094.38
2022-11-20T05:28:24.569Z,100094.38
2022-11-20T05:31:28.517Z,100088.28
2022-11-20T05:34:30.965Z,100092.38
2022-11-20T05:37:33.527Z,100079.06
2022-11-20T05:40:35.970Z,100087.44
2022-11-20T05:43:41.011Z,100092.53
2022-11-20T05:46:43.562Z,100091.03
2022-11-20T05:49:47.035Z,100080.91
2022-11-20T05:52:49.620Z,100068.03
2022-11-20T05:56:03.605Z,100064.69
2022-11-20T05:59:06.086Z,100079.69
2022-11-20T06:02:08.436Z,100069.56
2022-11-20T06:05:11.028Z,100065.28
2022-11-20T06:08:13.775Z,100072.97
2022-11-20T06:11:17.585Z,100056.50
2022-11-20T06:14:20.005Z,100060.91
2022-11-20T06:17:22.386Z,100067.63
2022-11-20T06:20:24.833Z,100055.63
2022-11-20T06:23:29.464Z,100046.66
2022-11-20T06:26:32.001Z,100053.81
2022-11-20T06:29:34.407Z,100066.00
2022-11-20T06:32:36.824Z,100078.72
2022-11-20T06:35:39.392Z,100089.66
2022-11-20T06:38:42.618Z,100075.75
2022-11-20T06:41:45.098Z,100072.00
2022-11-20T06:44:47.529Z,100083.13
2022-11-20T06:47:49.899Z,100067.66
2022-11-20T06:50:52.551Z,100066.53
2022-11-20T06:53:55.477Z,100078.25
2022-11-20T06:56:57.846Z,100069.28
2022-11-20T07:00:00.341Z,100071.66
2022-11-20T07:03:07.476Z,100073.25
2022-11-20T07:06:10.851Z,100075.09
2022-11-20T07:09:13.421Z,100067.34
2022-11-20T07:12:15.918Z,100061.53
2022-11-20T07:15:19.296Z,100067.59
2022-11-20T07:18:22.282Z,100066.34
2022-11-20T07:21:24.971Z,100065.63
2022-11-20T07:24:27.465Z,100054.34
2022-11-20T07:27:30.616Z,100047.88
2022-11-20T07:30:33.138Z,100057.47
2022-11-20T07:33:35.769Z,100063.34
2022-11-20T07:36:38.228Z,100048.31
2022-11-20T07:39:40.926Z,100050.44
2022-11-20T07:42:53.836Z,100064.78
2022-11-20T07:45:57.835Z,100062.03
2022-11-20T07:49:00.502Z,100066.09
2022-11-20T07:52:05.018Z,100073.91
2022-11-20T07:55:08.902Z,100074.22
2022-11-20T07:58:11.326Z,100069.31
2022-11-20T08:01:13.766Z,100073.56
2022-11-20T08:04:17.487Z,100080.91
2022-11-20T08:07:19.946Z,100084.88
2022-11-20T08:10:22.515Z,100076.72
2022-11-20T08:13:43.161Z,100068.66
2022-11-20T08:16:47.669Z,100060.19
2022-11-20T08:19:50.440Z,100058.75
2022-11-20T08:22:53.016Z,100064.28
2022-11-20T08:25:55.463Z,100066.47
2022-11-20T08:28:59.019Z,100085.34
2022-11-20T08:32:01.472Z,100114.31
2022-11-20T08:35:04.241Z,100124.94
2022-11-20T08:38:07.607Z,100110.09
2022-11-20T08:41:26.456Z,100104.09
2022-11-20T08:44:28.955Z,100104.78
2022-11-20T08:47:31.431Z,100098.13
2022-11-20T08:50:34.288Z,100117.63
2022-11-20T08:53:36.850Z,100136.38
2022-11-20T08:56:39.554Z,100144.34
2022-11-20T09:00:05.172Z,100150.28
2022-11-20T09:03:05.997Z,100108.53
2022-11-20T09:06:08.815Z,100126.25
2022-11-20T09:09:11.324Z,100131.56
2022-11-20T09:12:14.038Z,100137.13
2022-11-20T09:15:16.477Z,100137.13
2022-11-20T09:18:19.052Z,100124.59
2022-11-20T09:21:21.834Z,100120.38
2022-11-20T09:24:24.446Z,100123.84
2022-11-20T09:27:27.037Z,100118.78
2022-11-20T09:30:29.511Z,100111.63
2022-11-20T09:33:31.999Z,100111.06
2022-11-20T09:36:34.531Z,100104.75
2022-11-20T09:39:40.017Z,100089.56
2022-11-20T09:42:48.672Z,100079.72
2022-11-20T09:46:10.284Z,100064.28
2022-11-20T09:49:32.306Z,100072.31
2022-11-20T09:52:56.406Z,100065.72
2022-11-20T09:56:02.485Z,100077.03
2022-11-20T09:59:08.664Z,100069.00
2022-11-20T10:02:29.680Z,100050.41
2022-11-20T10:05:46.183Z,100069.19
2022-11-20T10:09:02.413Z,100053.09
2022-11-20T10:12:30.043Z,100062.69
2022-11-20T10:16:15.338Z,100056.91
2022-11-20T10:19:57.701Z,100047.41
2022-11-20T10:23:25.852Z,100047.56
2022-11-20T10:26:59.080Z,100057.41
2022-11-20T10:30:11.801Z,100064.78
2022-11-20T10:33:18.761Z,100059.16
2022-11-20T10:36:28.963Z,100042.78
2022-11-20T10:39:35.815Z,100037.72
2022-11-20T10:42:47.628Z,100031.88
2022-11-20T10:46:11.564Z,100022.81
2022-11-20T10:49:17.505Z,100021.63
2022-11-20T10:52:35.035Z,100040.56
2022-11-20T10:55:48.094Z,100050.06
2022-11-20T10:59:14.547Z,100050.34
2022-11-20T11:02:16.934Z,100047.81
2022-11-20T11:05:59.352Z,100041.19
2022-11-20T11:09:11.810Z,100060.66
2022-11-20T11:12:14.512Z,100071.13
2022-11-20T11:15:46.034Z,100078.09
2022-11-20T11:18:48.663Z,100070.84
2022-11-20T11:21:57.548Z,100077.75
2022-11-20T11:25:00.274Z,100075.91
2022-11-20T11:28:20.844Z,100067.63
2022-11-20T11:31:25.076Z,100058.31
2022-11-20T11:34:27.883Z,100042.09
2022-11-20T11:37:39.820Z,100061.16
2022-11-20T11:40:42.948Z,100052.34
2022-11-20T11:44:37.748Z,100066.72
2022-11-20T11:47:43.594Z,100045.22
2022-11-20T11:50:51.474Z,100022.09
2022-11-20T11:53:54.184Z,100033.44
2022-11-20T11:57:00.160Z,100028.81
2022-11-20T12:00:11.672Z,100016.16
2022-11-20T12:03:20.151Z,100021.19
2022-11-20T12:06:23.209Z,100021.41
2022-11-20T12:09:36.440Z,100022.00
2022-11-20T12:12:45.444Z,100002.22
2022-11-20T12:15:49.798Z,100009.28
2022-11-20T12:18:54.354Z,100013.16
2022-11-20T12:22:17.137Z,100015.25
2022-11-20T12:25:25.334Z,100013.94
2022-11-20T12:28:34.729Z,100016.56
2022-11-20T12:32:02.484Z,100017.41
2022-11-20T12:35:23.690Z,100048.31
2022-11-20T12:38:47.780Z,100041.50
2022-11-20T12:42:20.875Z,100020.78
2022-11-20T12:45:36.344Z,100035.75
2022-11-20T12:49:14.581Z,100036.28
2022-11-20T12:52:38.884Z,100039.06
2022-11-20T12:56:18.400Z,100025.16
2022-11-20T12:59:24.649Z,100018.72
2022-11-20T13:02:45.765Z,100023.09
2022-11-20T13:06:18.317Z,100021.06
2022-11-20T13:09:23.595Z,100039.19
2022-11-20T13:12:35.542Z,100049.88
2022-11-20T13:15:46.595Z,100047.56
2022-11-20T13:18:49.709Z,100048.66
2022-11-20T13:21:52.315Z,100043.75
2022-11-20T13:24:55.174Z,100036.78
2022-11-20T13:28:01.092Z,100026.31
2022-11-20T13:31:04.007Z,100006.69
2022-11-20T13:34:08.227Z,100006.31
2022-11-20T13:37:30.193Z,99991.94
2022-11-20T13:40:33.186Z,99994.50
2022-11-20T13:43:42.493Z,99993.88
2022-11-20T13:46:47.744Z,99989.09
2022-11-20T13:49:50.551Z,99994.78
2022-11-20T13:53:07.439Z,99985.84
2022-11-20T13:56:17.727Z,99973.03
2022-11-20T13:59:45.922Z,99994.50
2022-11-20T14:03:50.774Z,100008.53
2022-11-20T14:06:49.329Z,99988.91
2022-11-20T14:09:57.001Z,100019.19
2022-11-20T14:13:11.386Z,100027.66
2022-11-20T14:16:13.998Z,100024.16
2022-11-20T14:19:22.312Z,100028.75
2022-11-20T14:22:31.357Z,100035.97
2022-11-20T14:25:34.133Z,100039.69
2022-11-20T14:28:36.990Z,100040.84
2022-11-20T14:31:39.835Z,100033.31
2022-11-20T14:34:45.452Z,100031.19
2022-11-20T14:37:48.624Z,100027.19
2022-11-20T14:40:51.446Z,100018.06
2022-11-20T14:44:01.590Z,100027.78
2022-11-20T14:47:05.422Z,100034.75
2022-11-20T14:50:19.142Z,100037.03
2022-11-20T14:53:26.308Z,100037.69
2022-11-20T14:56:28.973Z,100042.56
2022-11-20T14:59:35.631Z,100039.31
2022-11-20T15:02:47.096Z,100045.59
2022-11-20T15:05:51.467Z,100037.44
2022-11-20T15:08:55.251Z,100039.28
2022-11-20T15:12:04.925Z,100042.03
2022-11-20T15:15:12.200Z,100043.19
2022-11-20T15:18:20.629Z,100040.72
2022-11-20T15:21:23.769Z,100054.59
2022-11-20T15:24:26.821Z,100044.97
2022-11-20T15:27:30.114Z,100045.84
2022-11-20T15:30:36.264Z,100035.97
2022-11-20T15:33:39.456Z,100053.41
2022-11-20T15:36:43.632Z,100047.81
2022-11-20T15:39:46.621Z,100043.72
2022-11-20T15:43:08.212Z,100043.25
2022-11-20T15:46:16.679Z,100040.88
2022-11-20T15:49:24.372Z,100048.09
2022-11-20T15:52:30.457Z,100058.63
2022-11-20T15:55:35.894Z,100070.81
2022-11-20T15:58:39.096Z,100065.78
2022-11-20T16:01:42.727Z,100074.59
2022-11-20T16:04:45.731Z,100094.19
2022-11-20T16:07:48.359Z,100096.03
2022-11-20T16:10:51.010Z,100092.53
2022-11-20T16:14:12.221Z,100077.59
2022-11-20T16:17:14.920Z,100075.19
2022-11-20T16:20:17.756Z,100065.09
2022-11-20T16:23:22.214Z,100064.66
2022-11-20T16:26:24.962Z,100070.66
2022-11-20T16:29:27.736Z,100058.38
2022-11-20T16:32:30.389Z,100064.47
2022-11-20T16:35:32.841Z,100066.19
2022-11-20T16:38:35.278Z,100064.41
2022-11-20T16:41:38.595Z,100079.00
2022-11-20T16:44:41.268Z,100089.41
2022-11-20T16:47:44.088Z,100071.81
2022-11-20T16:50:52.595Z,100069.50
2022-11-20T16:53:56.168Z,100084.75
2022-11-20T16:56:58.743Z,100075.22
2022-11-20T17:00:02.785Z,100069.91
2022-11-20T17:03:07.296Z,100065.22
2022-11-20T17:06:20.144Z,100063.06
2022-11-20T17:09:22.917Z,100051.94
2022-11-20T17:12:25.761Z,100042.47
2022-11-20T17:15:28.487Z,100037.34
2022-11-20T17:18:31.525Z,100043.22
2022-11-20T17:21:38.210Z,100037.88
2022-11-20T17:24:40.852Z,100043.03
2022-11-20T17:27:43.642Z,100037.69
2022-11-20T17:30:46.300Z,100023.00
2022-11-20T17:33:48.960Z,100020.91
2022-11-20T17:36:51.863Z,100022.75
2022-11-20T17:39:54.387Z,100022.09
2022-11-20T17:42:57.089Z,100019.78
2022-11-20T17:45:59.956Z,100026.78
2022-11-20T17:49:04.939Z,100026.78
2022-11-20T17:52:09.034Z,100020.13
2022-11-20T17:55:11.933Z,100016.91
2022-11-20T17:58:14.696Z,100024.66
2022-11-20T18:01:18.137Z,100023.31
2022-11-20T18:04:20.776Z,100029.31
2022-11-20T18:07:23.484Z,100036.31
2022-11-20T18:10:26.381Z,100054.28
2022-11-20T18:13:50.250Z,100078.78
2022-11-20T18:16:55.843Z,100087.47
2022-11-20T18:20:27.922Z,100087.72
2022-11-20T18:23:21.317Z,100081.13
2022-11-20T18:26:26.550Z,100090.38
2022-11-20T18:29:31.468Z,100092.25
2022-11-20T18:32:37.083Z,100089.88
2022-11-20T18:35:42.901Z,100086.47
2022-11-20T18:38:47.888Z,100085.50
2022-11-20T18:42:09.588Z,100094.50
2022-11-20T18:45:12.536Z,100092.94
2022-11-20T18:48:15.226Z,100087.84
2022-11-20T18:51:18.003Z,100085.34
2022-11-20T18:54:20.528Z,100074.75
2022-11-20T18:57:25.646Z,100054.63
2022-11-20T19:00:28.343Z,100048.63
2022-11-20T19:03:31.184Z,100056.81
2022-11-20T19:06:34.491Z,100058.56
2022-11-20T19:09:39.083Z,100061.22
2022-11-20T19:12:41.762Z,100060.38
2022-11-20T19:15:44.521Z,100065.56
2022-11-20T19:18:48.797Z,100057.09
2022-11-20T19:21:52.283Z,100055.44
2022-11-20T19:24:55.350Z,100045.25
2022-11-20T19:27:57.930Z,100051.72
2022-11-20T19:31:12.532Z,100042.38
2022-11-20T19:34:15.628Z,100045.94
2022-11-20T19:37:18.813Z,100040.00
2022-11-20T19:40:21.303Z,100036.00
2022-11-20T19:43:24.055Z,100033.50
2022-11-20T19:46:29.074Z,100031.84
2022-11-20T19:49:32.592Z,100041.06
2022-11-20T19:52:35.409Z,100039.91
2022-11-20T19:55:38.143Z,100040.84
2022-11-20T19:58:41.680Z,100042.50
2022-11-20T20:01:44.590Z,100052.00
2022-11-20T20:04:47.525Z,100035.06
2022-11-20T20:07:50.443Z,100051.19
2022-11-20T20:10:56.698Z,100042.78
2022-11-20T20:14:07.073Z,100049.53
2022-11-20T20:17:09.512Z,100049.50
2022-11-20T20:20:12.927Z,100044.41
2022-11-20T20:23:15.768Z,100037.69
2022-11-20T20:26:18.612Z,100036.75
2022-11-20T20:29:23.139Z,100027.06
2022-11-20T20:32:26.084Z,100021.97
2022-11-20T20:35:28.878Z,100023.91
2022-11-20T20:38:31.541Z,100030.91
2022-11-20T20:41:34.719Z,100030.06
2022-11-20T20:44:55.812Z,100038.66
2022-11-20T20:47:58.527Z,100053.03
2022-11-20T20:51:02.770Z,100059.78
2022-11-20T20:54:05.850Z,100066.00
2022-11-20T20:57:08.512Z,100065.16
2022-11-20T21:00:11.590Z,100066.94
2022-11-20T21:03:14.397Z,100074.66
2022-11-20T21:06:17.673Z,100081.25
2022-11-20T21:09:21.155Z,100078.03
2022-11-20T21:12:24.298Z,100088.16
2022-11-20T21:15:26.957Z,100081.50
2022-11-20T21:18:30.101Z,100084.91
2022-11-20T21:21:51.223Z,100080.75
2022-11-20T21:24:53.654Z,100079.00
2022-11-20T21:27:56.268Z,100079.03
2022-11-20T21:31:08.970Z,100087.47
2022-11-20T21:34:12.795Z,100090.13
2022-11-20T21:37:15.191Z,100082.50
2022-11-20T21:40:18.079Z,100081.63
2022-11-20T21:43:20.774Z,100087.63
2022-11-20T21:46:23.415Z,100091.94
2022-11-20T21:49:26.157Z,100088.50
2022-11-20T21:52:28.972Z,100089.47
2022-11-20T21:55:31.488Z,100094.59
2022-11-20T21:58:39.075Z,100080.19
2022-11-20T22:01:41.837Z,100062.22
2022-11-20T22:04:44.497Z,100062.28
2022-11-20T22:07:46.956Z,100058.97
2022-11-20T22:11:00.734Z,100072.53
2022-11-20T22:14:21.659Z,100074.31
2022-11-20T22:17:44.270Z,100068.41
2022-11-20T22:20:46.699Z,100066.63
2022-11-20T22:23:49.916Z,100060.81
2022-11-20T22:26:52.578Z,100059.03
2022-11-20T22:29:55.003Z,100070.06
2022-11-20T22:32:57.766Z,100068.41
2022-11-20T22:36:06.511Z,100054.91
2022-11-20T22:39:09.547Z,100048.97
2022-11-20T22:42:12.038Z,100038.56
2022-11-20T22:45:14.573Z,100048.84
2022-11-20T22:48:17.455Z,100035.41
2022-11-20T22:51:22.776Z,100042.22
2022-11-20T22:54:25.466Z,100032.03
2022-11-20T22:57:28.039Z,100030.19
2022-11-20T23:00:30.560Z,100028.59
2022-11-20T23:03:33.483Z,100017.63
2022-11-20T23:06:35.976Z,100017.66
2022-11-20T23:09:38.768Z,100015.09
2022-11-20T23:12:41.371Z,100013.47
2022-11-20T23:15:44.106Z,100010.03
2022-11-20T23:18:46.910Z,100013.47
2022-11-20T23:21:50.054Z,100024.44
2022-11-20T23:24:52.502Z,100010.03
2022-11-20T23:27:55.065Z,99999.06
2022-11-20T23:30:58.169Z,99998.91
2022-11-20T23:34:01.145Z,99978.63
2022-11-20T23:37:03.584Z,99976.78
2022-11-20T23:40:06.776Z,99956.59
2022-11-20T23:43:15.495Z,99951.63
2022-11-20T23:46:17.937Z,99956.78
2022-11-20T23:49:20.504Z,99943.44
2022-11-20T23:52:24.983Z,99948.56
2022-11-20T23:55:27.978Z,99949.44
2022-11-20T23:58:36.835Z,99952.94
